Observation data for Hereford on 08/14/2019      Previous  Date  Next       Current Mesonet Observations  Soil Data  Daily Summary Page  Observations in Plain Language
KHES 140500Z 11006KT 25/16 A3018 RMK A01 T02500161  RH  060%=      5-min Rain = 0
KHES 140505Z 12007KT 25/16 A3018 RMK A01 T02500162  RH  061%=      5-min Rain = 0
KHES 140510Z 10007G12KT 25/16 A3019 RMK A01 T02490163  RH  062%=      5-min Rain = 0
KHES 140515Z 10008G14KT 25/16 A3019 RMK A01 T02470163  RH  062%=      5-min Rain = 0
KHES 140520Z 11007G12KT 25/16 A3019 RMK A01 T02460163  RH  063%=      5-min Rain = 0
KHES 140525Z 12007G12KT 25/16 A3019 RMK A01 T02450163  RH  063%=      5-min Rain = 0
KHES 140530Z 10009KT 25/16 A3019 RMK A01 T02450163  RH  063%=      5-min Rain = 0
KHES 140535Z 10008G13KT 24/16 A3019 RMK A01 T02440163  RH  063%=      5-min Rain = 0
KHES 140540Z 09006KT 24/16 A3019 RMK A01 T02410163  RH  065%=      5-min Rain = 0
KHES 140545Z 10008KT 24/16 A3019 RMK A01 T02410163  RH  065%=      5-min Rain = 0
KHES 140550Z 09008KT 24/16 A302 RMK A01 T02390162  RH  065%=      5-min Rain = 0
KHES 140555Z 10009KT 24/16 A302 RMK A01 T02390162  RH  065%=      5-min Rain = 0
KHES 140600Z 09009KT 24/16 A302 RMK A01 T02380162  RH  065%=      5-min Rain = 0
KHES 140605Z 09008KT 24/16 A302 RMK A01 T02370162  RH  066%=      5-min Rain = 0
KHES 140610Z 09010KT 24/16 A3021 RMK A01 T02360163  RH  067%=      5-min Rain = 0
KHES 140615Z 08010KT 24/16 A3022 RMK A01 T02350163  RH  067%=      5-min Rain = 0
KHES 140620Z 08010KT 23/16 A3022 RMK A01 T02330162  RH  068%=      5-min Rain = 0
KHES 140625Z 07009KT 23/16 A3023 RMK A01 T02300162  RH  068%=      5-min Rain = 0
KHES 140630Z 08010KT 23/16 A3022 RMK A01 T02290162  RH  069%=      5-min Rain = 0
KHES 140635Z 07011KT 23/16 A3022 RMK A01 T02300163  RH  070%=      5-min Rain = 0
KHES 140640Z 07010G15KT 23/16 A3022 RMK A01 T02290164  RH  070%=      5-min Rain = 0
KHES 140645Z 07010G15KT 23/16 A3022 RMK A01 T02280163  RH  070%=      5-min Rain = 0
KHES 140650Z 08010G18KT 23/16 A3022 RMK A01 T02270163  RH  071%=      5-min Rain = 0
KHES 140655Z 08010KT 23/16 A3021 RMK A01 T02260163  RH  071%=      5-min Rain = 0
KHES 140700Z 08010KT 23/16 A3021 RMK A01 T02270163  RH  070%=      5-min Rain = 0
KHES 140705Z 08009G14KT 23/16 A3021 RMK A01 T02270163  RH  070%=      5-min Rain = 0
KHES 140710Z 07009G15KT 23/16 A3022 RMK A01 T02260163  RH  071%=      5-min Rain = 0
KHES 140715Z 07010KT 23/16 A3022 RMK A01 T02260163  RH  071%=      5-min Rain = 0
KHES 140720Z 08009KT 23/16 A3021 RMK A01 T02260162  RH  071%=      5-min Rain = 0
KHES 140725Z 09009KT 23/16 A3021 RMK A01 T02260162  RH  071%=      5-min Rain = 0
KHES 140730Z 08009KT 23/16 A3021 RMK A01 T02260162  RH  071%=      5-min Rain = 0
KHES 140735Z 09010KT 23/16 A3021 RMK A01 T02260162  RH  070%=      5-min Rain = 0
KHES 140740Z 09009KT 23/16 A3021 RMK A01 T02270161  RH  069%=      5-min Rain = 0
KHES 140745Z 09008KT 23/16 A3021 RMK A01 T02260160  RH  070%=      5-min Rain = 0
KHES 140750Z 09008KT 23/16 A302 RMK A01 T02250160  RH  070%=      5-min Rain = 0
KHES 140755Z 09005KT 22/16 A302 RMK A01 T02230160  RH  071%=      5-min Rain = 0
KHES 140800Z 08005KT 22/16 A3021 RMK A01 T02210160  RH  072%=      5-min Rain = 0
KHES 140805Z 08006KT 22/16 A3021 RMK A01 T02190160  RH  072%=      5-min Rain = 0
KHES 140810Z 07008G17KT 22/16 A3022 RMK A01 T02190160  RH  073%=      5-min Rain = 0
KHES 140815Z 05013KT 22/16 A3022 RMK A01 T02150162  RH  075%=      5-min Rain = 0
KHES 140820Z 07012KT 21/16 A3022 RMK A01 T02070163  RH  079%=      5-min Rain = 0
KHES 140825Z 07013KT 21/16 A3022 RMK A01 T02050162  RH  080%=      5-min Rain = 0
KHES 140830Z 06013G19KT 20/16 A3022 RMK A01 T02040158  RH  078%=      5-min Rain = 0
KHES 140835Z 07014G19KT 20/15 A3022 RMK A01 T02010152  RH  077%=      5-min Rain = 0
KHES 140840Z 07013G18KT 20/15 A3023 RMK A01 T01990147  RH  075%=      5-min Rain = 0
KHES 140845Z 07013G18KT 20/14 A3023 RMK A01 T01970143  RH  074%=      5-min Rain = 0
KHES 140850Z 06013G18KT 20/14 A3023 RMK A01 T01950140  RH  073%=      5-min Rain = 0
KHES 140855Z 06014G19KT 19/14 A3023 RMK A01 T01930137  RH  073%=      5-min Rain = 0
KHES 140900Z 07014G21KT 19/14 A3023 RMK A01 T01920137  RH  073%=      5-min Rain = 0
KHES 140905Z 06014G19KT 19/14 A3023 RMK A01 T01910136  RH  073%=      5-min Rain = 0
KHES 140910Z 06014KT 19/14 A3023 RMK A01 T01910136  RH  073%=      5-min Rain = 0
KHES 140915Z 05015G21KT 19/14 A3024 RMK A01 T01910135  RH  073%=      5-min Rain = 0
KHES 140920Z 05014KT 19/13 A3024 RMK A01 T01890134  RH  073%=      5-min Rain = 0
KHES 140925Z 04013KT 19/14 A3025 RMK A01 T01870136  RH  075%=      5-min Rain = 0
KHES 140930Z 04013KT 18/14 A3025 RMK A01 T01840136  RH  077%=      5-min Rain = 0
KHES 140935Z 04014G19KT 18/13 A3025 RMK A01 T01810132  RH  076%=      5-min Rain = 0
KHES 140940Z 04013G18KT 18/13 A3025 RMK A01 T01790130  RH  076%=      5-min Rain = 0
KHES 140945Z 04014KT 18/13 A3025 RMK A01 T01770128  RH  076%=      5-min Rain = 0
KHES 140950Z 04013G18KT 18/13 A3025 RMK A01 T01770125  RH  074%=      5-min Rain = 0
KHES 140955Z 05012G17KT 18/12 A3025 RMK A01 T01770123  RH  073%=      5-min Rain = 0
KHES 141000Z 05014KT 18/12 A3025 RMK A01 T01780122  RH  072%=      5-min Rain = 0
KHES 141005Z 06012G17KT 18/12 A3025 RMK A01 T01790121  RH  072%=      5-min Rain = 0
KHES 141010Z 06012G17KT 18/12 A3025 RMK A01 T01790120  RH  071%=      5-min Rain = 0
KHES 141015Z 05012G17KT 18/12 A3026 RMK A01 T01800120  RH  071%=      5-min Rain = 0
KHES 141020Z 04013KT 18/12 A3026 RMK A01 T01790120  RH  071%=      5-min Rain = 0
KHES 141025Z 05012G17KT 18/12 A3025 RMK A01 T01800119  RH  070%=      5-min Rain = 0
KHES 141030Z 04012KT 18/12 A3026 RMK A01 T01790119  RH  071%=      5-min Rain = 0
KHES 141035Z 03011G16KT 18/12 A3027 RMK A01 T01800119  RH  070%=      5-min Rain = 0
KHES 141040Z 04011KT 18/12 A3027 RMK A01 T01810120  RH  070%=      5-min Rain = 0
KHES 141045Z 05009KT 18/12 A3026 RMK A01 T01810120  RH  070%=      5-min Rain = 0
KHES 141050Z 04009KT 18/12 A3026 RMK A01 T01800121  RH  071%=      5-min Rain = 0
KHES 141055Z 05010KT 18/12 A3026 RMK A01 T01800121  RH  071%=      5-min Rain = 0
KHES 141100Z 05010KT 18/12 A3026 RMK A01 T01800121  RH  071%=      5-min Rain = 0
KHES 141105Z 05010KT 18/12 A3027 RMK A01 T01810120  RH  070%=      5-min Rain = 0
KHES 141110Z 06011KT 18/12 A3026 RMK A01 T01830119  RH  069%=      5-min Rain = 0
KHES 141115Z 06011G16KT 18/12 A3026 RMK A01 T01830118  RH  068%=      5-min Rain = 0
KHES 141120Z 06013G19KT 18/12 A3026 RMK A01 T01840118  RH  068%=      5-min Rain = 0
KHES 141125Z 06014KT 18/12 A3026 RMK A01 T01830118  RH  068%=      5-min Rain = 0
KHES 141130Z 06014KT 19/12 A3026 RMK A01 T01850118  RH  067%=      5-min Rain = 0
KHES 141135Z 06012G17KT 19/12 A3027 RMK A01 T01850118  RH  067%=      5-min Rain = 0
KHES 141140Z 05013KT 19/12 A3027 RMK A01 T01860118  RH  067%=      5-min Rain = 0
KHES 141145Z 06013G18KT 19/12 A3028 RMK A01 T01860119  RH  067%=      5-min Rain = 0
KHES 141150Z 05013G19KT 19/12 A3028 RMK A01 T01860119  RH  067%=      5-min Rain = 0
KHES 141155Z 05010KT 19/12 A3028 RMK A01 T01860120  RH  068%=      5-min Rain = 0
KHES 141200Z 04013G18KT 19/12 A3029 RMK A01 T01860120  RH  068%=      5-min Rain = 0
KHES 141205Z 04012G17KT 19/12 A3029 RMK A01 T01870118  RH  066%=      5-min Rain = 0
KHES 141210Z 04011G16KT 18/12 A3028 RMK A01 T01840120  RH  068%=      5-min Rain = 0
KHES 141215Z 04012KT 18/12 A3029 RMK A01 T01840119  RH  068%=      5-min Rain = 0
KHES 141220Z 03010G15KT 18/12 A303 RMK A01 T01830120  RH  069%=      5-min Rain = 0
KHES 141225Z 03009G14KT 18/12 A303 RMK A01 T01820120  RH  070%=      5-min Rain = 0
KHES 141230Z 02008KT 18/12 A3031 RMK A01 T01820121  RH  070%=      5-min Rain = 0
KHES 141235Z 02008KT 18/12 A3031 RMK A01 T01820122  RH  071%=      5-min Rain = 0
KHES 141240Z 01008KT 18/12 A3032 RMK A01 T01820122  RH  071%=      5-min Rain = 0
KHES 141245Z 35006KT 18/12 A3033 RMK A01 T01810123  RH  071%=      5-min Rain = 0
KHES 141250Z 33007KT 18/13 A3033 RMK A01 T01810125  RH  072%=      5-min Rain = 0
KHES 141255Z 33007KT 18/13 A3033 RMK A01 T01800126  RH  073%=      5-min Rain = 0
KHES 141300Z 31007KT 18/13 A3033 RMK A01 T01790126  RH  074%=      5-min Rain = 0
KHES 141305Z 32006KT 18/13 A3033 RMK A01 T01800126  RH  074%=      5-min Rain = 0
KHES 141310Z 33005KT 18/13 A3032 RMK A01 T01790126  RH  074%=      5-min Rain = 0
KHES 141315Z 33007KT 18/13 A3032 RMK A01 T01790126  RH  074%=      5-min Rain = 0
KHES 141320Z 34007KT 18/13 A3032 RMK A01 T01800125  RH  073%=      5-min Rain = 0
KHES 141325Z 34007KT 18/13 A3032 RMK A01 T01810126  RH  073%=      5-min Rain = 0
KHES 141330Z 32006KT 18/13 A3033 RMK A01 T01800127  RH  074%=      5-min Rain = 0
KHES 141335Z 28004KT 18/13 A3032 RMK A01 T01800128  RH  074%=      5-min Rain = 0
KHES 141340Z 21005KT 18/13 A3031 RMK A01 T01800129  RH  075%=      5-min Rain = 0
KHES 141345Z 16009KT 18/13 A3029 RMK A01 T01790131  RH  076%=      5-min Rain = 0
KHES 141350Z 14008KT 18/13 A3028 RMK A01 T01790130  RH  076%=      5-min Rain = 0
KHES 141355Z 13008KT 18/13 A3027 RMK A01 T01800130  RH  076%=      5-min Rain = 0
KHES 141400Z 12007KT 18/13 A3025 RMK A01 T01810129  RH  075%=      5-min Rain = 0
KHES 141405Z 30006G11KT 18/13 A3026 RMK A01 T01840129  RH  073%=      5-min Rain = 0
KHES 141410Z 20011G20KT 18/13 A3025 RMK A01 T01840128  RH  073%=      5-min Rain = 0
KHES 141415Z 17008G13KT 18/13 A3025 RMK A01 T01840128  RH  073%=      5-min Rain = 0
KHES 141420Z 20007KT 18/13 A3026 RMK A01 T01840129  RH  073%=      5-min Rain = 0
KHES 141425Z 20006KT 19/13 A3026 RMK A01 T01860129  RH  072%=      5-min Rain = 0
KHES 141430Z 23006KT 19/13 A3027 RMK A01 T01880129  RH  071%=      5-min Rain = 0
KHES 141435Z 21006KT 19/13 A3027 RMK A01 T01890130  RH  071%=      5-min Rain = 0
KHES 141440Z 20009KT 19/13 A3026 RMK A01 T01920131  RH  071%=      5-min Rain = 0
KHES 141445Z 18009KT 20/13 A3026 RMK A01 T01980128  RH  067%=      5-min Rain = 0
KHES 141450Z 18010G16KT 20/13 A3027 RMK A01 T02040127  RH  064%=      5-min Rain = 0
KHES 141455Z 18012KT 20/13 A3026 RMK A01 T02030125  RH  064%=      5-min Rain = 0
KHES 141500Z 17010KT 21/13 A3026 RMK A01 T02060126  RH  062%=      5-min Rain = 0
KHES 141505Z 17010KT 21/13 A3026 RMK A01 T02130126  RH  060%=      5-min Rain = 0
KHES 141510Z 20009KT 22/13 A3027 RMK A01 T02160128  RH  060%=      5-min Rain = 0
KHES 141515Z 18008KT 22/13 A3027 RMK A01 T02160129  RH  060%=      5-min Rain = 0
KHES 141520Z 18006KT 22/13 A3026 RMK A01 T02160127  RH  059%=      5-min Rain = 0
KHES 141525Z 12004KT 22/13 A3026 RMK A01 T02230128  RH  057%=      5-min Rain = 0
KHES 141530Z 07005KT 23/13 A3027 RMK A01 T02300129  RH  055%=      5-min Rain = 0
KHES 141535Z 06006KT 23/13 A3027 RMK A01 T02340127  RH  053%=      5-min Rain = 0
KHES 141540Z 05007KT 24/13 A3027 RMK A01 T02420130  RH  052%=      5-min Rain = 0
KHES 141545Z 04007G13KT 25/13 A3027 RMK A01 T02460129  RH  050%=      5-min Rain = 0
KHES 141550Z 04009KT 24/13 A3027 RMK A01 T02430129  RH  051%=      5-min Rain = 0
KHES 141555Z 04008KT 25/13 A3027 RMK A01 T02480130  RH  050%=      5-min Rain = 0
KHES 141600Z 02009KT 25/13 A3027 RMK A01 T02510127  RH  048%=      5-min Rain = 0
KHES 141605Z 02010KT 25/13 A3027 RMK A01 T02520129  RH  048%=      5-min Rain = 0
KHES 141610Z 02010KT 26/13 A3027 RMK A01 T02550126  RH  046%=      5-min Rain = 0
KHES 141615Z 01010KT 26/12 A3027 RMK A01 T02590122  RH  044%=      5-min Rain = 0
KHES 141620Z 35009KT 26/13 A3027 RMK A01 T02640132  RH  046%=      5-min Rain = 0
KHES 141625Z 36009KT 27/13 A3027 RMK A01 T02700132  RH  044%=      5-min Rain = 0
KHES 141630Z 00011KT 27/12 A3027 RMK A01 T02730122  RH  041%=      5-min Rain = 0
KHES 141635Z 01012KT 27/13 A3027 RMK A01 T02730125  RH  041%=      5-min Rain = 0
KHES 141640Z 00010KT 27/13 A3028 RMK A01 T02740131  RH  043%=      5-min Rain = 0
KHES 141645Z 01014KT 27/13 A3029 RMK A01 T02690126  RH  043%=      5-min Rain = 0
KHES 141650Z 01015G21KT 27/13 A3029 RMK A01 T02680129  RH  044%=      5-min Rain = 0
KHES 141655Z 00017G22KT 26/13 A3029 RMK A01 T02610133  RH  047%=      5-min Rain = 0
KHES 141700Z 36015KT 26/14 A3029 RMK A01 T02620140  RH  049%=      5-min Rain = 0
KHES 141705Z 01016G21KT 26/14 A3029 RMK A01 T02630142  RH  049%=      5-min Rain = 0
KHES 141710Z 00012G20KT 26/14 A3028 RMK A01 T02630143  RH  050%=      5-min Rain = 0
KHES 141715Z 02010G16KT 27/15 A3028 RMK A01 T02690147  RH  049%=      5-min Rain = 0
KHES 141720Z 02012G18KT 27/14 A3028 RMK A01 T02690137  RH  046%=      5-min Rain = 0
KHES 141725Z 03012G20KT 27/13 A3028 RMK A01 T02680134  RH  045%=      5-min Rain = 0
KHES 141730Z 03012G17KT 27/13 A3029 RMK A01 T02700133  RH  045%=      5-min Rain = 0
KHES 141735Z 02015G20KT 27/13 A3029 RMK A01 T02690134  RH  045%=      5-min Rain = 0
KHES 141740Z 01014KT 27/13 A3029 RMK A01 T02700133  RH  045%=      5-min Rain = 0
KHES 141745Z 01013G18KT 27/13 A3029 RMK A01 T02710131  RH  044%=      5-min Rain = 0
KHES 141750Z 01014KT 27/13 A3028 RMK A01 T02700130  RH  044%=      5-min Rain = 0
KHES 141755Z 03012G18KT 27/13 A3028 RMK A01 T02700132  RH  044%=      5-min Rain = 0
KHES 141800Z 03011G18KT 27/13 A3028 RMK A01 T02730133  RH  044%=      5-min Rain = 0
KHES 141805Z 02012G17KT 28/14 A3027 RMK A01 T02760136  RH  044%=      5-min Rain = 0
KHES 141810Z 02012KT 28/13 A3027 RMK A01 T02770132  RH  042%=      5-min Rain = 0
KHES 141815Z 02012G17KT 28/13 A3026 RMK A01 T02750132  RH  043%=      5-min Rain = 0
KHES 141820Z 01009G14KT 28/13 A3026 RMK A01 T02760133  RH  043%=      5-min Rain = 0
KHES 141825Z 04009G14KT 28/14 A3026 RMK A01 T02820141  RH  044%=      5-min Rain = 0
KHES 141830Z 02010KT 28/14 A3026 RMK A01 T02770142  RH  045%=      5-min Rain = 0
KHES 141835Z 02008KT 27/14 A3026 RMK A01 T02740141  RH  046%=      5-min Rain = 0
KHES 141840Z 02007KT 28/14 A3025 RMK A01 T02780143  RH  045%=      5-min Rain = 0
KHES 141845Z 03008KT 28/14 A3025 RMK A01 T02770141  RH  045%=      5-min Rain = 0
KHES 141850Z 02008KT 27/14 A3025 RMK A01 T02690139  RH  047%=      5-min Rain = 0
KHES 141855Z 03006KT 26/13 A3024 RMK A01 T02630134  RH  047%=      5-min Rain = 0
KHES 141900Z 07007KT 26/14 A3022 RMK A01 T02620139  RH  049%=      5-min Rain = 0
KHES 141905Z 03006KT 26/15 A3023 RMK A01 T02600152  RH  054%=      5-min Rain = 0
KHES 141910Z 01002KT 27/15 A3023 RMK A01 T02710145  RH  048%=      5-min Rain = 0
KHES 141915Z 02002KT 28/15 A3022 RMK A01 T02840145  RH  045%=      5-min Rain = 0
KHES 141920Z 36004KT 29/14 A3022 RMK A01 T02860139  RH  042%=      5-min Rain = 0
KHES 141925Z 35004KT 28/14 A3022 RMK A01 T02770136  RH  044%=      5-min Rain = 0
KHES 141930Z 35007KT 28/15 A3022 RMK A01 T02760147  RH  047%=      5-min Rain = 0
KHES 141935Z 34006KT 28/15 A3021 RMK A01 T02760150  RH  048%=      5-min Rain = 0
KHES 141940Z 34005KT 28/15 A3021 RMK A01 T02790145  RH  046%=      5-min Rain = 0
KHES 141945Z 02004KT 28/15 A3021 RMK A01 T02820146  RH  045%=      5-min Rain = 0
KHES 141950Z 35001KT 29/14 A3021 RMK A01 T02850137  RH  042%=      5-min Rain = 0
KHES 141955Z 10003KT 29/14 A3021 RMK A01 T02900139  RH  041%=      5-min Rain = 0
KHES 142000Z 02006KT 29/14 A3021 RMK A01 T02880142  RH  042%=      5-min Rain = 0
KHES 142005Z 04006KT 29/14 A3021 RMK A01 T02900144  RH  043%=      5-min Rain = 0
KHES 142010Z 02003KT 29/13 A302 RMK A01 T02910132  RH  039%=      5-min Rain = 0
KHES 142015Z 35002KT 29/13 A302 RMK A01 T02940133  RH  039%=      5-min Rain = 0
KHES 142020Z 01005KT 30/14 A302 RMK A01 T02980142  RH  040%=      5-min Rain = 0
KHES 142025Z 02006KT 30/14 A302 RMK A01 T02980138  RH  039%=      5-min Rain = 0
KHES 142030Z 01005KT 30/14 A302 RMK A01 T02980136  RH  039%=      5-min Rain = 0
KHES 142035Z 02005KT 30/14 A3019 RMK A01 T03020136  RH  038%=      5-min Rain = 0
KHES 142040Z 01006KT 30/14 A3019 RMK A01 T03000137  RH  038%=      5-min Rain = 0
KHES 142045Z 35004KT 30/14 A3019 RMK A01 T03010135  RH  038%=      5-min Rain = 0
KHES 142050Z 02005KT 30/13 A3019 RMK A01 T03020132  RH  037%=      5-min Rain = 0
KHES 142055Z 01005KT 30/13 A3019 RMK A01 T03030131  RH  036%=      5-min Rain = 0
KHES 142100Z 01005KT 30/13 A3018 RMK A01 T03040133  RH  037%=      5-min Rain = 0
KHES 142105Z 01006KT 31/14 A3018 RMK A01 T03070136  RH  037%=      5-min Rain = 0
KHES 142110Z 02006KT 31/13 A3018 RMK A01 T03060132  RH  036%=      5-min Rain = 0
KHES 142115Z 02005KT 31/13 A3018 RMK A01 T03050131  RH  036%=      5-min Rain = 0
KHES 142120Z 03005KT 31/13 A3017 RMK A01 T03060131  RH  036%=      5-min Rain = 0
KHES 142125Z 03006KT 31/13 A3017 RMK A01 T03070132  RH  036%=      5-min Rain = 0
KHES 142130Z 02004KT 31/13 A3017 RMK A01 T03080130  RH  035%=      5-min Rain = 0
KHES 142135Z 01004KT 31/13 A3017 RMK A01 T03120132  RH  035%=      5-min Rain = 0
KHES 142140Z 04006KT 31/13 A3016 RMK A01 T03110127  RH  034%=      5-min Rain = 0
KHES 142145Z 05005KT 31/13 A3016 RMK A01 T03110128  RH  034%=      5-min Rain = 0
KHES 142150Z 00004KT 31/12 A3016 RMK A01 T03100124  RH  033%=      5-min Rain = 0
KHES 142155Z 02005KT 31/12 A3016 RMK A01 T03140124  RH  033%=      5-min Rain = 0
KHES 142200Z 03005KT 31/12 A3015 RMK A01 T03130123  RH  033%=      5-min Rain = 0
KHES 142205Z 02006KT 32/13 A3015 RMK A01 T03150128  RH  033%=      5-min Rain = 0
KHES 142210Z 01006KT 31/12 A3015 RMK A01 T03140123  RH  032%=      5-min Rain = 0
KHES 142215Z 01006KT 31/12 A3015 RMK A01 T03120119  RH  032%=      5-min Rain = 0
KHES 142220Z 02006KT 32/13 A3015 RMK A01 T03150125  RH  033%=      5-min Rain = 0
KHES 142225Z 35005KT 32/13 A3014 RMK A01 T03160126  RH  032%=      5-min Rain = 0
KHES 142230Z 01007KT 32/12 A3014 RMK A01 T03160123  RH  032%=      5-min Rain = 0
KHES 142235Z 36007KT 32/12 A3014 RMK A01 T03160123  RH  032%=      5-min Rain = 0
KHES 142240Z 00006KT 32/13 A3014 RMK A01 T03170128  RH  033%=      5-min Rain = 0
KHES 142245Z 01008KT 32/12 A3014 RMK A01 T03170122  RH  032%=      5-min Rain = 0
KHES 142250Z 01008KT 32/12 A3014 RMK A01 T03160121  RH  031%=      5-min Rain = 0
KHES 142255Z 02007KT 32/12 A3014 RMK A01 T03150118  RH  031%=      5-min Rain = 0
KHES 142300Z 01005KT 32/12 A3014 RMK A01 T03160118  RH  031%=      5-min Rain = 0
KHES 142305Z 00007KT 32/12 A3014 RMK A01 T03150118  RH  031%=      5-min Rain = 0
KHES 142310Z 01006KT 32/12 A3014 RMK A01 T03150117  RH  031%=      5-min Rain = 0
KHES 142315Z 01005KT 32/12 A3014 RMK A01 T03160119  RH  031%=      5-min Rain = 0
KHES 142320Z 01005KT 32/12 A3013 RMK A01 T03160117  RH  031%=      5-min Rain = 0
KHES 142325Z 02005KT 32/12 A3013 RMK A01 T03160119  RH  031%=      5-min Rain = 0
KHES 142330Z 02005KT 32/12 A3013 RMK A01 T03170117  RH  030%=      5-min Rain = 0
KHES 142335Z 03005KT 32/12 A3013 RMK A01 T03160119  RH  031%=      5-min Rain = 0
KHES 142340Z 02005KT 32/12 A3013 RMK A01 T03170120  RH  031%=      5-min Rain = 0
KHES 142345Z 01005KT 32/12 A3013 RMK A01 T03160119  RH  031%=      5-min Rain = 0
KHES 142350Z 02005KT 32/12 A3013 RMK A01 T03150117  RH  031%=      5-min Rain = 0
KHES 142355Z 01005KT 31/12 A3013 RMK A01 T03140117  RH  031%=      5-min Rain = 0
KHES 150000Z 01005KT 31/12 A3013 RMK A01 T03140118  RH  031%=      5-min Rain = 0
KHES 150005Z 02005KT 32/12 A3013 RMK A01 T03150124  RH  032%=      5-min Rain = 0
KHES 150010Z 01004KT 31/13 A3013 RMK A01 T03140126  RH  033%=      5-min Rain = 0
KHES 150015Z 01005KT 31/13 A3013 RMK A01 T03120125  RH  033%=      5-min Rain = 0
KHES 150020Z 01005KT 31/13 A3013 RMK A01 T03110127  RH  034%=      5-min Rain = 0
KHES 150025Z 02005KT 31/13 A3013 RMK A01 T03100131  RH  035%=      5-min Rain = 0
KHES 150030Z 01005KT 31/13 A3013 RMK A01 T03090128  RH  034%=      5-min Rain = 0
KHES 150035Z 01005KT 31/13 A3013 RMK A01 T03070134  RH  036%=      5-min Rain = 0
KHES 150040Z 35005KT 30/13 A3014 RMK A01 T03040133  RH  037%=      5-min Rain = 0
KHES 150045Z 35005KT 30/13 A3014 RMK A01 T02980131  RH  037%=      5-min Rain = 0
KHES 150050Z 35005KT 29/14 A3014 RMK A01 T02940135  RH  039%=      5-min Rain = 0
KHES 150055Z 35005KT 29/13 A3014 RMK A01 T02920134  RH  039%=      5-min Rain = 0
KHES 150100Z 35004KT 29/14 A3014 RMK A01 T02860141  RH  043%=      5-min Rain = 0
KHES 150105Z 35003KT 28/14 A3014 RMK A01 T02840140  RH  043%=      5-min Rain = 0
KHES 150110Z 35003KT 29/14 A3014 RMK A01 T02850135  RH  041%=      5-min Rain = 0
KHES 150115Z 34002KT 29/14 A3014 RMK A01 T02850138  RH  042%=      5-min Rain = 0
KHES 150120Z 36003KT 28/15 A3014 RMK A01 T02800147  RH  046%=      5-min Rain = 0
KHES 150125Z 01003KT 27/15 A3014 RMK A01 T02730150  RH  049%=      5-min Rain = 0
KHES 150130Z 02002KT 27/15 A3015 RMK A01 T02740146  RH  047%=      5-min Rain = 0
KHES 150135Z 01001KT 28/15 A3015 RMK A01 T02750147  RH  047%=      5-min Rain = 0
KHES 150140Z 13001KT 27/15 A3015 RMK A01 T02740146  RH  047%=      5-min Rain = 0
KHES 150145Z 17004KT 27/14 A3015 RMK A01 T02730140  RH  046%=      5-min Rain = 0
KHES 150150Z 14003KT 28/12 A3016 RMK A01 T02830118  RH  037%=      5-min Rain = 0
KHES 150155Z 08003KT 29/12 A3016 RMK A01 T02890124  RH  037%=      5-min Rain = 0
KHES 150200Z 13003KT 28/13 A3016 RMK A01 T02820130  RH  041%=      5-min Rain = 0
KHES 150205Z 11003KT 29/12 A3016 RMK A01 T02860121  RH  037%=      5-min Rain = 0
KHES 150210Z 13003KT 29/12 A3016 RMK A01 T02850122  RH  038%=      5-min Rain = 0
KHES 150215Z 13002KT 28/13 A3016 RMK A01 T02810127  RH  040%=      5-min Rain = 0
KHES 150220Z 18002KT 28/12 A3017 RMK A01 T02790120  RH  039%=      5-min Rain = 0
KHES 150225Z 19004KT 28/12 A3017 RMK A01 T02810121  RH  039%=      5-min Rain = 0
KHES 150230Z 17004KT 27/13 A3017 RMK A01 T02740125  RH  041%=      5-min Rain = 0
KHES 150235Z 14004KT 27/12 A3017 RMK A01 T02740122  RH  040%=      5-min Rain = 0
KHES 150240Z 13004KT 28/12 A3017 RMK A01 T02770120  RH  039%=      5-min Rain = 0
KHES 150245Z 13005KT 28/12 A3017 RMK A01 T02800116  RH  038%=      5-min Rain = 0
KHES 150250Z 15006KT 28/11 A3017 RMK A01 T02790113  RH  037%=      5-min Rain = 0
KHES 150255Z 15004KT 28/12 A3017 RMK A01 T02750117  RH  039%=      5-min Rain = 0
KHES 150300Z 15003KT 27/12 A3018 RMK A01 T02710117  RH  040%=      5-min Rain = 0
KHES 150305Z 15005KT 27/12 A3018 RMK A01 T02710116  RH  040%=      5-min Rain = 0
KHES 150310Z 15004KT 27/12 A3018 RMK A01 T02690117  RH  040%=      5-min Rain = 0
KHES 150315Z 14005KT 27/12 A3018 RMK A01 T02690115  RH  040%=      5-min Rain = 0
KHES 150320Z 13004KT 27/11 A3018 RMK A01 T02710113  RH  039%=      5-min Rain = 0
KHES 150325Z 15004KT 27/11 A3018 RMK A01 T02700114  RH  039%=      5-min Rain = 0
KHES 150330Z 18004KT 27/12 A3019 RMK A01 T02670116  RH  040%=      5-min Rain = 0
KHES 150335Z 17005KT 26/12 A3019 RMK A01 T02630117  RH  042%=      5-min Rain = 0
KHES 150340Z 15004KT 26/12 A3019 RMK A01 T02600118  RH  043%=      5-min Rain = 0
KHES 150345Z 10004KT 26/12 A302 RMK A01 T02580119  RH  044%=      5-min Rain = 0
KHES 150350Z 11005KT 26/12 A302 RMK A01 T02590116  RH  042%=      5-min Rain = 0
KHES 150355Z 12004KT 26/11 A302 RMK A01 T02620112  RH  041%=      5-min Rain = 0
KHES 150400Z 13004KT 26/11 A302 RMK A01 T02620113  RH  041%=      5-min Rain = 0
KHES 150405Z 13005KT 26/11 A302 RMK A01 T02620113  RH  041%=      5-min Rain = 0
KHES 150410Z 14005KT 26/11 A302 RMK A01 T02630114  RH  041%=      5-min Rain = 0
KHES 150415Z 14006KT 26/12 A3019 RMK A01 T02600115  RH  042%=      5-min Rain = 0
KHES 150420Z 14006KT 26/12 A3019 RMK A01 T02580115  RH  042%=      5-min Rain = 0
KHES 150425Z 13005KT 26/12 A3019 RMK A01 T02590118  RH  043%=      5-min Rain = 0
KHES 150430Z 13005KT 26/12 A3019 RMK A01 T02580119  RH  044%=      5-min Rain = 0
KHES 150435Z 13006KT 26/12 A3019 RMK A01 T02590122  RH  044%=      5-min Rain = 0
KHES 150440Z 13006KT 26/12 A3019 RMK A01 T02610124  RH  044%=      5-min Rain = 0
KHES 150445Z 12008KT 26/13 A3019 RMK A01 T02620125  RH  044%=      5-min Rain = 0
KHES 150450Z 13009KT 26/13 A302 RMK A01 T02630125  RH  044%=      5-min Rain = 0
KHES 150455Z 12009KT 26/13 A302 RMK A01 T02640126  RH  044%=      5-min Rain = 0

Page generated in 0.0092 seconds.